This is the latest recevied weather packets stored in our database for station/object LU3HGB-WX. If no packets are shown the sender has not sent any weather packets the latest 10 day(s).
| Time | Temp. | Humidity | Pressure | Rain* | Wind** | Luminosity | Snow |
|---|---|---|---|---|---|---|---|
| 1777811860 | 11.11° C | 52% | 1019 hPa | 0 mm | - | 238 W/m² | - |
| 1777811560 | 10.56° C | 52% | 1020 hPa | 0 mm | - | 221 W/m² | - |
| 1777811259 | 10° C | 58% | 1020 hPa | 0 mm | - | 204 W/m² | - |
| 1777810960 | 9.44° C | 56% | 1020 hPa | 0 mm | - | 188 W/m² | - |
| 1777810660 | 8.89° C | 63% | 1020 hPa | 0 mm | - | 169 W/m² | - |
| 1777810360 | 7.78° C | 66% | 1020 hPa | 0 mm | - | 157 W/m² | - |
| 1777810060 | 6.67° C | 72% | 1020 hPa | 0 mm | - | 142 W/m² | - |
| 1777809759 | 6.11° C | 73% | 1020 hPa | 0 mm | - | 128 W/m² | - |
| 1777809460 | 5° C | 77% | 1020 hPa | 0 mm | - | 114 W/m² | - |
| 1777809159 | 4.44° C | 77% | 1020 hPa | 0 mm | - | 100 W/m² | - |
| 1777808859 | 3.33° C | 83% | 1020 hPa | 0 mm | - | 85 W/m² | - |
| 1777808559 | 2.78° C | 88% | 1020 hPa | 0 mm | - | 76 W/m² | - |
| 1777808260 | 2.78° C | 88% | 1020 hPa | 0 mm | - | 46 W/m² | - |
| 1777807959 | 2.22° C | 89% | 1020 hPa | 0 mm | - | 32 W/m² | - |
| 1777807660 | 2.22° C | 90% | 1020 hPa | 0 mm | - | 28 W/m² | - |
| 1777807359 | 2.22° C | 90% | 1020 hPa | 0 mm | - | 26 W/m² | - |
| 1777807060 | 2.22° C | 90% | 1020 hPa | 0 mm | - | 22 W/m² | - |
| 1777806759 | 1.67° C | 92% | 1020 hPa | 0 mm | - | 19 W/m² | - |
| 1777806461 | 1.67° C | 91% | 1020 hPa | 0 mm | - | 15 W/m² | - |
| 1777806159 | 1.67° C | 91% | 1020 hPa | 0 mm | - | 11 W/m² | - |
| 1777805859 | 1.67° C | 91% | 1020 hPa | 0 mm | - | 7 W/m² | - |
| 1777805559 | 2.22° C | 91% | 1020 hPa | 0 mm | - | 4 W/m² | - |
| 1777805259 | 2.22° C | 92% | 1019 hPa | 0 mm | - | 2 W/m² | - |
| 1777804959 | 2.22° C | 92% | 1019 hPa | 0 mm | - | 1 W/m² | - |
| 1777804659 | 2.22° C | 92% | 1020 hPa | 0 mm | - | 0 W/m² | - |
* Rain latest hour (hover to see other rain measurements)
** Current wind speed in m/s (hover to see current wind gust speed)